Latest Weather Observations for Onslow Airport

IDW60801

Issued at 7:32 am WST Monday 25 May 2015 (issued every 30 minutes, with the page automatically refreshed every 10 minutes)

About weather observations | Map of weather stations | Latest weather observations for WA | Other Formats
Station Details ID: 005017 Name: ONSLOW AIRPORT Lat: -21.67 Lon: 115.11 Height: 10.5 m
Data from the previous 72 hours. | See also: Recent months at Onslow Airport
Date/Time
WST
Temp
°C
App
Temp
°C
Dew
Point
Rel
Hum
%
Delta-T
°C
Wind Press
QNH
hPa
Press
MSL
hPa
Rain
since 9 am
mm
Dir
 
Spd
km/h
Gust
km/h
Spd
kts
Gust
kts
25/07:30am 20.2 19.2 18.0 87 1.4 ESE 20 26 11 14 1016.9 1016.9 0.2
25/07:00am 20.0 20.0 18.0 88 1.2 ESE 15 19 8 10 1016.5 1016.5 0.2
25/06:30am 20.1 20.0 17.9 87 1.4 ESE 15 19 8 10 1016.3 1016.3 0.2
25/06:00am 20.1 20.0 17.9 87 1.4 ESE 15 17 8 9 1016.1 1016.1 0.2
25/05:30am 20.2 20.2 18.0 87 1.4 ESE 15 17 8 9 1015.9 1015.9 0.2
25/05:00am 20.3 20.3 18.2 88 1.3 ESE 15 17 8 9 1015.6 1015.6 0.2
25/04:30am 20.4 20.4 18.2 87 1.4 ESE 15 19 8 10 1015.5 1015.5 0.2
25/04:00am 20.1 20.1 18.2 89 1.2 ESE 15 17 8 9 1015.4 1015.4 0.2
25/03:30am 20.1 20.4 18.0 88 1.3 ESE 13 15 7 8 1015.3 1015.3 0.2
25/03:00am 20.3 20.3 18.1 87 1.4 ESE 15 17 8 9 1015.4 1015.4 0.2
25/02:30am 20.4 20.4 18.2 87 1.4 E 15 19 8 10 1015.5 1015.5 0.2
25/02:00am 20.5 20.2 18.3 87 1.4 E 17 20 9 11 1015.6 1015.6 0.2
25/01:30am 20.4 20.8 18.2 87 1.4 ESE 13 17 7 9 1015.5 1015.5 0.2
25/01:00am 20.3 20.4 18.4 89 1.2 ESE 15 19 8 10 1015.6 1015.6 0.2
25/12:30am 20.2 20.3 18.3 89 1.2 ESE 15 17 8 9 1015.7 1015.7 0.2
25/12:00am 20.3 20.0 18.2 88 1.3 ESE 17 20 9 11 1015.7 1015.7 0.2
 
Date/Time
WST
Temp
°C
App
Temp
°C
Dew
Point
Rel
Hum
%
Delta-T
°C
Wind Press
QNH
hPa
Press
MSL
hPa
Rain
since 9 am
mm
Dir
 
Spd
km/h
Gust
km/h
Spd
kts
Gust
kts
24/11:30pm 20.4 20.5 18.3 88 1.3 E 15 17 8 9 1015.8 1015.8 0.2
24/11:00pm 20.5 20.2 18.3 87 1.4 ENE 17 20 9 11 1016.1 1016.1 0.2
24/10:30pm 20.6 20.0 18.5 88 1.3 ENE 19 22 10 12 1016.2 1016.2 0.2
24/10:00pm 20.4 19.8 18.5 89 1.2 ENE 19 24 10 13 1016.4 1016.4 0.2
24/09:30pm 20.5 19.9 18.8 90 1.1 ENE 20 24 11 13 1016.4 1016.4 0.2
24/09:00pm 20.4 19.4 18.9 91 0.9 NE 22 28 12 15 1016.4 1016.4 0.2
24/08:30pm 20.5 20.0 19.0 91 0.9 ENE 20 28 11 15 1016.5 1016.5 0.2
24/08:00pm 21.0 20.6 19.3 90 1.1 ENE 20 24 11 13 1016.3 1016.3 0.0
24/07:30pm 21.4 21.2 19.3 88 1.3 NE 19 24 10 13 1016.0 1016.0 0.0
24/07:00pm 21.5 20.7 19.2 87 1.5 NE 22 32 12 17 1015.8 1015.8 0.0
24/06:30pm 21.6 19.9 19.0 85 1.6 NE 26 32 14 17 1015.5 1015.5 0.0
24/06:00pm 21.8 19.8 19.2 85 1.6 NE 28 33 15 18 1015.5 1015.5 0.0
24/05:30pm 22.0 20.5 19.4 85 1.7 NE 26 30 14 16 1015.3 1015.3 0.0
24/05:00pm 22.3 21.2 19.5 84 1.8 NNE 24 30 13 16 1015.0 1015.0 0.0
24/04:30pm 22.6 20.9 19.0 80 2.3 NNE 26 30 14 16 1014.8 1014.8 0.0
24/04:00pm 23.0 22.2 19.2 79 2.4 NNE 22 26 12 14 1014.4 1014.4 0.0
24/03:30pm 23.2 22.7 19.1 78 2.6 NNE 20 26 11 14 1014.3 1014.3 0.0
24/03:00pm 24.1 23.7 19.0 73 3.2 NE 19 22 10 12 1014.1 1014.1 0.0
24/02:30pm 23.5 23.3 19.4 78 2.6 NE 19 20 10 11 1014.2 1014.2 0.0
24/02:00pm 23.4 22.6 19.3 78 2.6 NNE 22 26 12 14 1014.4 1014.4 0.0
24/01:30pm 24.1 24.1 19.8 77 2.8 NE 19 24 10 13 1014.7 1014.7 0.0
24/01:00pm 24.3 23.9 19.4 74 3.1 NE 20 24 11 13 1015.2 1015.2 0.0
24/12:30pm 24.2 23.2 19.7 76 2.9 NNE 24 28 13 15 1015.5 1015.5 0.0
24/12:00pm 24.4 25.5 19.7 75 3.0 ENE 13 19 7 10 1015.8 1015.8 0.0
24/11:30am 24.5 25.3 19.1 72 3.4 ENE 13 15 7 8 1016.1 1016.1 0.0
24/11:00am 24.6 25.5 19.2 72 3.5 ENE 13 17 7 9 1016.4 1016.4 0.0
24/10:30am 25.0 25.5 18.4 66 4.2 ESE 13 15 7 8 1016.6 1016.6 0.0
24/10:00am 23.7 24.1 18.1 71 3.5 ESE 13 15 7 8 1016.7 1016.7 0.0
24/09:30am 22.6 22.2 17.1 71 3.4 SSE 15 19 8 10 1016.6 1016.6 0.0
24/09:00am 21.9 21.9 17.1 74 2.9 SSE 13 17 7 9 1016.5 1016.5 0.0
24/08:30am 20.4 18.8 15.0 71 3.2 SE 17 19 9 10 1016.4 1016.4 0.0
24/08:00am 19.7 17.8 14.1 70 3.2 SSE 17 20 9 11 1016.2 1016.2 0.0
24/07:30am 19.5 17.2 14.1 71 3.1 SSE 19 22 10 12 1016.2 1016.2 0.0
24/07:00am 18.9 16.3 13.7 72 3.0 S 20 24 11 13 1015.8 1015.8 0.0
24/06:30am 19.1 18.3 15.0 77 2.4 S 13 19 7 10 1015.4 1015.4 0.0
24/06:00am 19.8 19.1 16.4 81 2.0 S 15 19 8 10 1015.0 1015.0 0.0
24/05:30am 19.6 19.2 16.1 80 2.1 SSE 13 19 7 10 1014.9 1014.9 0.0
24/05:00am 19.8 18.5 15.9 78 2.3 S 17 20 9 11 1014.7 1014.7 0.0
24/04:30am 19.5 18.9 15.6 78 2.3 S 13 17 7 9 1014.9 1014.9 0.0
24/04:00am 19.8 19.3 15.9 78 2.3 SSE 13 17 7 9 1014.9 1014.9 0.0
24/03:30am 20.0 19.3 15.4 75 2.7 S 13 15 7 8 1015.0 1015.0 0.0
24/03:00am 20.0 18.7 14.8 72 3.0 S 15 19 8 10 1014.9 1014.9 0.0
24/02:30am 20.0 19.8 15.6 76 2.6 SSW 11 15 6 8 1015.0 1015.0 0.0
24/02:00am 19.7 19.4 15.4 76 2.5 S 11 11 6 6 1015.0 1015.0 0.0
24/01:30am 20.3 19.8 14.9 71 3.2 SSE 11 13 6 7 1015.4 1015.4 0.0
24/01:00am 20.4 20.1 14.5 69 3.4 S 9 13 5 7 1015.3 1015.3 0.0
24/12:30am 21.1 19.5 13.8 63 4.2 SSW 15 19 8 10 1015.3 1015.3 0.0
24/12:00am 21.4 20.0 14.6 65 4.0 SW 15 19 8 10 1015.4 1015.4 0.0
 
Date/Time
WST
Temp
°C
App
Temp
°C
Dew
Point
Rel
Hum
%
Delta-T
°C
Wind Press
QNH
hPa
Press
MSL
hPa
Rain
since 9 am
mm
Dir
 
Spd
km/h
Gust
km/h
Spd
kts
Gust
kts
23/11:30pm 21.4 20.7 16.4 73 3.0 SW 15 17 8 9 1015.4 1015.4 0.0
23/11:00pm 21.1 21.7 16.9 77 2.6 WSW 9 13 5 7 1015.6 1015.6 0.0
23/10:30pm 21.7 21.5 17.5 77 2.6 SW 15 19 8 10 1015.5 1015.5 0.0
23/10:00pm 21.5 21.5 17.3 77 2.6 SW 13 17 7 9 1015.6 1015.6 0.0
23/09:30pm 22.1 21.6 16.8 72 3.2 SW 15 19 8 10 1015.8 1015.8 0.0
23/09:00pm 22.0 22.3 17.8 77 2.6 SW 13 15 7 8 1015.9 1015.9 0.0
23/08:30pm 22.1 23.1 19.5 85 1.7 SW 13 15 7 8 1015.9 1015.9 0.0
23/08:00pm 22.1 23.7 20.0 88 1.3 WSW 11 15 6 8 1015.9 1015.9 0.0
23/07:30pm 22.1 24.2 20.2 89 1.2 WSW 9 13 5 7 1015.9 1015.9 0.0
23/07:00pm 22.1 24.6 20.2 89 1.2 W 7 9 4 5 1015.7 1015.7 0.0
23/06:30pm 22.2 24.3 20.1 88 1.4 WNW 9 11 5 6 1015.7 1015.7 0.0
23/06:00pm 22.5 24.5 20.0 86 1.6 NW 9 11 5 6 1015.7 1015.7 0.0
23/05:30pm 22.8 25.2 20.0 84 1.8 NW 7 11 4 6 1015.6 1015.6 0.0
23/05:00pm 23.3 25.5 19.7 80 2.3 NW 7 9 4 5 1015.5 1015.5 0.0
23/04:30pm 23.8 26.0 19.7 78 2.6 NW 7 7 4 4 1015.4 1015.4 0.0
23/04:00pm 23.9 25.8 19.8 78 2.6 NW 9 11 5 6 1015.6 1015.6 0.0
23/03:30pm 25.2 27.4 17.4 62 4.9 S 2 7 1 4 1015.6 1015.6 0.0
23/03:00pm 24.8 26.4 17.8 65 4.4 SSE 6 9 3 5 1015.6 1015.6 0.0
23/02:30pm 25.1 26.3 18.3 66 4.3 SSW 9 15 5 8 1015.7 1015.7 0.0
23/02:00pm 25.4 26.3 18.3 65 4.5 S 11 15 6 8 1015.4 1015.4 0.0
23/01:30pm 24.5 26.1 19.1 72 3.4 SSW 9 13 5 7 1015.9 1015.9 0.0
23/01:00pm 24.1 25.8 19.4 75 3.0 SSE 9 13 5 7 1016.3 1016.3 0.0
23/12:30pm 23.7 25.0 19.4 77 2.8 SE 11 15 6 8 1016.7 1016.7 0.0
23/12:00pm 23.6 24.7 19.7 79 2.5 SE 13 17 7 9 1016.8 1016.8 0.0
23/11:30am 23.0 24.0 19.4 80 2.3 SE 13 15 7 8 1017.3 1017.3 0.0
23/11:00am 22.5 23.6 19.7 84 1.8 SSE 13 15 7 8 1017.8 1017.8 0.0
23/10:30am 22.3 23.7 19.5 84 1.8 SSE 11 13 6 7 1017.9 1017.9 0.0
23/10:00am 21.9 22.8 19.3 85 1.6 SSW 13 15 7 8 1018.2 1018.2 0.0
23/09:30am 21.5 22.5 19.4 88 1.3 S 13 15 7 8 1017.9 1017.9 0.0
23/09:00am 21.2 22.8 19.1 88 1.3 SSE 9 13 5 7 1017.7 1017.7 3.2
23/08:30am 20.7 22.3 19.2 91 0.9 S 9 11 5 6 1017.7 1017.7 3.2
23/08:00am 20.5 22.2 19.3 93 0.8 S 9 11 5 6 1017.7 1017.7 3.2
23/07:30am 20.4 22.1 19.4 94 0.6 SSW 9 11 5 6 1017.5 1017.5 3.2
23/07:00am 20.1 21.7 19.1 94 0.6 SSW 9 13 5 7 1016.9 1016.9 3.2
23/06:30am 20.1 20.9 19.1 94 0.6 SSW 13 15 7 8 1016.9 1016.9 3.2
23/06:00am 20.3 21.5 19.1 93 0.8 S 11 13 6 7 1016.5 1016.5 3.2
23/05:30am 20.1 21.6 18.9 93 0.8 SE 9 11 5 6 1016.3 1016.3 3.2
23/05:00am 20.4 22.4 19.1 92 0.8 ESE 7 9 4 5 1016.5 1016.5 3.2
23/04:30am 20.6 22.7 19.3 92 0.8 ESE 7 9 4 5 1016.5 1016.5 3.2
23/04:00am 20.5 22.1 19.2 92 0.8 ESE 9 9 5 5 1016.6 1016.6 3.2
23/03:30am 20.5 22.5 19.2 92 0.8 E 7 9 4 5 1016.6 1016.6 3.2
23/03:00am 20.6 22.7 19.3 92 0.8 E 7 9 4 5 1017.1 1017.1 3.2
23/02:30am 20.5 21.8 19.2 92 0.8 ESE 11 13 6 7 1016.8 1016.8 3.2
23/02:00am 20.5 21.4 19.2 92 0.8 ESE 13 15 7 8 1017.0 1017.0 3.2
23/01:30am 20.7 21.6 19.2 91 0.9 ESE 13 17 7 9 1017.1 1017.1 3.2
23/01:00am 20.6 21.4 19.1 91 0.9 ESE 13 15 7 8 1017.2 1017.2 3.2
23/12:30am 20.5 21.0 19.2 92 0.8 SSE 15 19 8 10 1017.3 1017.3 3.2
23/12:00am 20.4 20.9 19.2 93 0.8 SE 15 19 8 10 1017.3 1017.3 3.2
 
Date/Time
WST
Temp
°C
App
Temp
°C
Dew
Point
Rel
Hum
%
Delta-T
°C
Wind Press
QNH
hPa
Press
MSL
hPa
Rain
since 9 am
mm
Dir
 
Spd
km/h
Gust
km/h
Spd
kts
Gust
kts
22/11:30pm 20.5 21.5 19.5 94 0.6 SE 13 15 7 8 1017.9 1017.9 3.2
22/11:00pm 20.7 22.5 19.5 93 0.8 SE 9 13 5 7 1018.1 1018.1 3.2
22/10:30pm 20.7 21.8 19.7 94 0.6 SE 13 15 7 8 1017.8 1017.8 3.2
22/10:00pm 20.8 22.7 19.8 94 0.6 SE 9 11 5 6 1018.1 1018.1 3.2
22/09:30pm 20.8 22.0 20.0 95 0.5 ESE 13 17 7 9 1018.1 1018.1 3.2
22/09:00pm 21.0 22.4 20.3 96 0.4 E 13 15 7 8 1017.9 1017.9 3.2
22/08:30pm 21.1 22.2 20.4 96 0.5 E 15 17 8 9 1017.7 1017.7 3.2
22/08:00pm 21.0 22.0 20.3 96 0.4 ESE 15 17 8 9 1017.6 1017.6 3.2
22/07:30pm 21.3 22.8 20.6 96 0.5 ESE 13 15 7 8 1017.6 1017.6 3.0
22/07:00pm 21.4 24.0 20.4 94 0.6 SE 7 9 4 5 1017.4 1017.4 1.2
22/06:30pm 21.5 23.6 20.1 92 0.9 E 9 11 5 6 1017.0 1017.0 1.0
22/06:00pm 21.7 23.9 20.3 92 0.9 ENE 9 11 5 6 1016.8 1016.8 1.0
22/05:30pm 21.7 23.5 20.3 92 0.9 NE 11 15 6 8 1016.6 1016.6 1.0
22/05:00pm 22.1 23.8 20.2 89 1.2 NE 11 17 6 9 1016.3 1016.3 1.0
22/04:30pm 22.3 26.0 20.0 87 1.5 CALM 0 0 0 0 1016.2 1016.2 1.0
22/04:00pm 22.2 26.1 20.3 89 1.2 CALM 0 0 0 0 1015.9 1015.9 1.0
22/03:30pm 21.6 23.9 19.9 90 1.1 WSW 7 7 4 4 1016.1 1016.1 0.8
22/03:00pm 21.7 23.5 19.6 88 1.3 WSW 9 13 5 7 1016.4 1016.4 0.2
22/02:30pm 22.8 25.0 19.6 82 2.0 W 7 11 4 6 1016.3 1016.3 0.2
22/02:00pm 22.5 23.1 18.7 79 2.4 N 13 19 7 10 1016.3 1016.3 0.0
22/01:30pm 23.6 23.0 17.6 69 3.7 NNE 17 22 9 12 1016.5 1016.5 0.0
22/01:00pm 23.5 23.4 17.0 67 4.0 N 13 17 7 9 1016.8 1016.8 0.0
22/12:30pm 23.8 23.4 17.1 66 4.1 N 15 20 8 11 1016.9 1016.9 0.0
22/12:00pm 25.2 25.0 17.7 63 4.7 NNE 15 20 8 11 1017.0 1017.0 0.0
22/11:30am 23.3 23.1 17.5 70 3.6 NNE 15 20 8 11 1017.5 1017.5 0.0
22/11:00am 23.5 22.3 16.1 63 4.5 NE 17 22 9 12 1018.0 1018.0 0.0
22/10:30am 23.7 21.9 16.0 62 4.7 NNE 20 24 11 13 1018.3 1018.3 0.0
22/10:00am 23.3 21.7 15.9 63 4.5 NE 19 26 10 14 1018.5 1018.5 0.0
22/09:30am 23.7 23.4 16.5 64 4.4 NE 13 19 7 10 1018.6 1018.6 0.0
22/09:00am 22.4 21.6 16.2 68 3.7 E 15 19 8 10 1018.5 1018.5 -
22/08:30am 20.9 20.2 16.3 75 2.8 E 15 17 8 9 1018.2 1018.2 -
22/08:00am 20.8 20.5 16.4 76 2.6 E 13 17 7 9 1018.1 1018.1 -

Other Formats:

Comma delimited format used in spreadsheet applications
http://www.bom.gov.au/fwo/IDW60801/IDW60801.95305.axf

JavaScript Object Notation format (JSON) in row-major order
http://www.bom.gov.au/fwo/IDW60801/IDW60801.95305.json